METAR Data
IDs: Format: Raw Decoded Include TAF

Data at: 0751 UTC 03 Aug 2021

KPRB 030653Z AUTO 28006KT 10SM CLR 18/08 A3003 RMK AO2 SLP162 T01830083
KPRB 030553Z AUTO 29008KT 10SM CLR 20/08 A3004 RMK AO2 SLP164 T02000083 10350 20200 51017
KPRB 030453Z AUTO 30005KT 10SM CLR 23/04 A3003 RMK AO2 SLP162 T02280039
KPRB 030353Z AUTO 21005KT 10SM CLR 23/06 A3001 RMK AO2 SLP155 T02330061
KPRB 030253Z AUTO 20010KT 10SM CLR 26/08 A2999 RMK AO2 SLP148 T02610078 53006
KPRB 030153Z AUTO 20012KT 10SM CLR 29/08 A2997 RMK AO2 SLP141 T02940083
KPRB 030053Z AUTO 20012KT 10SM CLR 33/08 A2997 RMK AO2 SLP140 T03280083
KPRB 022353Z AUTO 20011KT 10SM CLR 35/05 A2997 RMK AO2 SLP140 T03500050 10372 20244 56016
KPRB 022253Z AUTO 19014G20KT 10SM CLR 36/00 A2998 RMK AO2 SLP145 T03610000
KPRB 022153Z AUTO 20008KT 10SM CLR 37/03 A3000 RMK AO2 SLP150 T03670028
KPRB 022053Z AUTO VRB04KT 10SM CLR 36/00 A3002 RMK AO2 SLP156 T03560000 58023
KPRB 021953Z AUTO 00000KT 10SM CLR 33/01 A3004 RMK AO2 SLP165 T03330011
KPRB 021853Z AUTO 00000KT 10SM CLR 29/06 A3007 RMK AO2 SLP175 T02890056
KPRB 021753Z AUTO VRB03KT 10SM CLR 24/11 A3009 RMK AO2 SLP182 T02440106 10244 20106 58012
KPRB 021653Z AUTO 30003KT 10SM CLR 21/11 A3010 RMK AO2 SLP188 T02060111
KPRB 021553Z AUTO 00000KT 10SM CLR 16/11 A3012 RMK AO2 SLP195 T01610111
KPRB 021453Z AUTO 00000KT 10SM CLR 14/11 A3012 RMK AO2 SLP196 T01390106 51011
KPRB 021353Z AUTO 00000KT 10SM CLR 11/09 A3012 RMK AO2 SLP195 T01110089
KPRB 021253Z AUTO 00000KT 10SM CLR 11/08 A3010 RMK AO2 SLP187 T01110083
KPRB 021153Z AUTO 30003KT 10SM CLR 13/10 A3009 RMK AO2 SLP183 T01280100 10167 20128 53003
KPRB 021053Z AUTO 28003KT 10SM CLR 13/10 A3009 RMK AO2 SLP181 T01280100
KPRB 020953Z AUTO 28005KT 10SM CLR 14/11 A3008 RMK AO2 SLP180 T01390106
KPRB 020853Z AUTO 31007KT 10SM CLR 14/11 A3008 RMK AO2 SLP179 T01440106 50000
KPRB 020753Z AUTO 00000KT 10SM CLR 15/10 A3008 RMK AO2 SLP179 T01500100 403220117
KPRB 020653Z AUTO 27005KT 10SM CLR 16/10 A3009 RMK AO2 SLP180 T01610100
KPRB 020553Z AUTO 21004KT 10SM CLR 17/10 A3008 RMK AO2 SLP180 T01720100 10289 20172 51015
KPRB 020453Z AUTO 18013KT 10SM CLR 18/10 A3008 RMK AO2 SLP178 T01830100
KPRB 020353Z AUTO 20010KT 10SM CLR 19/11 A3005 RMK AO2 SLP170 T01940106
KPRB 020253Z AUTO 18013KT 10SM CLR 22/09 A3004 RMK AO2 SLP166 T02220094 53006
KPRB 020153Z AUTO 21014KT 10SM CLR 25/09 A3003 RMK AO2 SLP161 T02500089
KPRB 020053Z AUTO 21015KT 10SM CLR 27/08 A3002 RMK AO2 SLP161 T02720078
KPRB 012353Z AUTO 22015KT 10SM CLR 29/07 A3002 RMK AO2 SLP159 T02890072 10322 20256 55003
KPRB 012253Z AUTO 22012KT 10SM CLR 29/09 A3002 RMK AO2 SLP158 T02940089
KPRB 012153Z AUTO 20017KT 10SM CLR 30/07 A3002 RMK AO2 SLP159 T03000067
KPRB 012053Z AUTO 22013KT 10SM CLR 31/08 A3003 RMK AO2 SLP161 T03060078 56009
KPRB 011953Z AUTO 19012KT 10SM CLR 31/08 A3003 RMK AO2 SLP162 T03060083